Aérodrome :
LOGIN :

S'inscrire | Disclaimer

   EN    FR    IT 

 










Légende :    VFR   VFR Marginal   IFR   IFR Intensif   IFR Très Intensif
Visi : 
Plafond : 
>= 8 km
>= 3000ft
5 à 8 km
1000 à 3000 ft
1500m à 5 km
500 à 1000 ft
800 à 1500m
200 à 500 ft
< 800m
< 200 ft
Symboles :   Orages  Brouillard  Fortes neiges  Fortes précipitations  Vent > 20 kt
SIGMETs :   Divers  Orages  Givrage  Turbulence  Onde Orograph.  Cendres Volcan.







- Altitude de l'aérodrome : 39 ft
- Code IATA : CTA


LICC - Catania Fontanarossa

DERNIER METAR :
  • 181320Z 07016KT CAVOK 28/21 Q1013

METARs EXPIRÉS :
  • 181250Z 07015KT CAVOK 27/20 Q1013
  • 181220Z 07015KT CAVOK 28/20 Q1013
  • 181150Z 08016KT CAVOK 28/20 Q1013
  • 181120Z 08015KT CAVOK 28/20 Q1013
  • 181050Z 08013KT CAVOK 28/20 Q1013

TAF TAF LICC
Valide du 18 à 12h jusqu'au 19 à 12h UTC


181100Z 1812/1912 08012KT CAVOK
BECMG 1818/1820 VRB05KT
TEMPO 1900/1906 3000 BR BKN010
BECMG 1908/1910 08012KT
Pas de NOTAMs connus pour ce terrain.



MET'MAP, la Météo Aéronautique d'un coup d'oeil ! - Copyright ORBIFLY Décembre 2007 - Disclaimer

ORBIFLY MET'MAP TEAM :

Programmation & Développement : Alexandra Zaïnal
Conception & Développement : Baudouin d'Aumeries
Co-Programmation & Développement : Marc-Olivier Méhu
Soutien technique & logistique : Manuel Goepfert

Contact : metmap@orbifly.com




SOURCES & CREDITS :

   NOAA